Time,TemperatureF,DewpointF,PressureIn,WindDirection,WindDirectionDegrees,WindSpeedMPH,WindSpeedGustMPH,Humidity,HourlyPrecipIn,Conditions,Clouds,dailyrainin,SolarRadiationWatts/m^2,SoftwareType,DateUTC
2013-10-01 00:10:00,53.9,50.0,29.78,NE,51,8.0,-999.0,85,-99.99,,,0.00,0,weatherlink.com 1.10,2013-09-30 23:10:00,
2013-10-01 00:25:00,54.0,49.0,29.79,NNE,18,2.0,-999.0,84,-99.99,,,0.00,0,weatherlink.com 1.10,2013-09-30 23:25:00,
2013-10-01 00:40:00,53.9,49.0,29.79,NE,38,4.0,-999.0,84,-99.99,,,0.00,0,weatherlink.com 1.10,2013-09-30 23:40:00,
2013-10-01 00:56:00,53.7,49.0,29.79,NE,39,8.0,-999.0,84,-99.99,,,0.00,0,weatherlink.com 1.10,2013-09-30 23:56:00,
2013-10-01 01:11:00,53.5,49.0,29.79,NE,53,5.0,-999.0,85,-99.99,,,0.00,0,weatherlink.com 1.10,2013-10-01 00:11:00,
2013-10-01 01:26:00,53.2,49.0,29.79,NE,35,4.0,-999.0,85,-99.99,,,0.00,0,weatherlink.com 1.10,2013-10-01 00:26:00,
2013-10-01 01:41:00,52.9,49.0,29.79,NE,56,2.0,-999.0,85,-99.99,,,0.00,0,weatherlink.com 1.10,2013-10-01 00:41:00,
2013-10-01 01:56:00,52.5,49.0,29.80,NNE,22,2.0,-999.0,86,-99.99,,,0.00,0,weatherlink.com 1.10,2013-10-01 00:56:00,
2013-10-01 02:11:00,52.0,48.0,29.80,North,5,4.0,-999.0,87,-99.99,,,0.00,0,weatherlink.com 1.10,2013-10-01 01:11:00,
2013-10-01 02:26:00,51.6,48.0,29.81,NE,44,4.0,-999.0,88,-99.99,,,0.00,0,weatherlink.com 1.10,2013-10-01 01:26:00,
2013-10-01 02:41:00,51.4,48.0,29.81,NNE,23,4.0,-999.0,88,-99.99,,,0.00,0,weatherlink.com 1.10,2013-10-01 01:41:00,
2013-10-01 02:56:00,50.9,48.0,29.81,NE,50,6.0,-999.0,88,-99.99,,,0.00,0,weatherlink.com 1.10,2013-10-01 01:56:00,
2013-10-01 03:11:00,50.7,48.0,29.80,NE,47,3.0,-999.0,89,-99.99,,,0.00,0,weatherlink.com 1.10,2013-10-01 02:11:00,
2013-10-01 03:26:00,50.5,47.0,29.81,NNE,32,3.0,-999.0,89,-99.99,,,0.00,0,weatherlink.com 1.10,2013-10-01 02:26:00,
2013-10-01 03:41:00,50.2,47.0,29.80,NE,34,2.0,-999.0,89,-99.99,,,0.00,0,weatherlink.com 1.10,2013-10-01 02:41:00,
2013-10-01 03:56:00,49.9,47.0,29.80,NNE,24,9.0,-999.0,89,-99.99,,,0.00,0,weatherlink.com 1.10,2013-10-01 02:56:00,
2013-10-01 04:11:00,49.5,47.0,29.80,NNE,26,3.0,-999.0,90,-99.99,,,0.00,0,weatherlink.com 1.10,2013-10-01 03:11:00,
2013-10-01 04:26:00,49.3,47.0,29.80,NE,43,1.0,-999.0,90,-99.99,,,0.00,0,weatherlink.com 1.10,2013-10-01 03:26:00,
2013-10-01 04:41:00,49.1,46.0,29.80,NNW,340,1.0,-999.0,90,-99.99,,,0.00,0,weatherlink.com 1.10,2013-10-01 03:41:00,
2013-10-01 04:56:00,48.6,46.0,29.80,NNW,336,5.0,-999.0,90,-99.99,,,0.00,0,weatherlink.com 1.10,2013-10-01 03:56:00,
2013-10-01 05:11:00,48.4,46.0,29.79,NE,44,6.0,-999.0,90,-99.99,,,0.00,0,weatherlink.com 1.10,2013-10-01 04:11:00,
2013-10-01 05:26:00,48.9,46.0,29.79,NNE,20,5.0,-999.0,90,-99.99,,,0.00,0,weatherlink.com 1.10,2013-10-01 04:26:00,
2013-10-01 05:41:00,49.2,46.0,29.79,NE,45,12.0,-999.0,89,-99.99,,,0.00,0,weatherlink.com 1.10,2013-10-01 04:41:00,
2013-10-01 05:56:00,49.1,46.0,29.79,NE,53,5.0,-999.0,89,-99.99,,,0.00,0,weatherlink.com 1.10,2013-10-01 04:56:00,
2013-10-01 06:11:00,48.8,46.0,29.79,North,5,3.0,-999.0,89,-99.99,,,0.00,0,weatherlink.com 1.10,2013-10-01 05:11:00,
2013-10-01 06:26:00,48.2,45.0,29.79,North,9,4.0,-999.0,89,-99.99,,,0.00,0,weatherlink.com 1.10,2013-10-01 05:26:00,
2013-10-01 06:41:00,47.9,45.0,29.79,NNE,15,3.0,-999.0,90,-99.99,,,0.00,0,weatherlink.com 1.10,2013-10-01 05:41:00,
2013-10-01 06:56:00,48.5,46.0,29.79,East,85,8.0,-999.0,90,-99.99,,,0.00,0,weatherlink.com 1.10,2013-10-01 05:56:00,
2013-10-01 07:11:00,48.8,46.0,29.79,NE,45,6.0,-999.0,89,-99.99,,,0.00,7,weatherlink.com 1.10,2013-10-01 06:11:00,
2013-10-01 07:26:00,49.0,46.0,29.79,East,82,4.0,-999.0,89,-99.99,,,0.00,14,weatherlink.com 1.10,2013-10-01 06:26:00,
2013-10-01 07:41:00,49.0,46.0,29.79,ENE,59,8.0,-999.0,89,-99.99,,,0.00,28,weatherlink.com 1.10,2013-10-01 06:41:00,
2013-10-01 07:56:00,49.1,46.0,29.79,East,79,6.0,-999.0,89,-99.99,,,0.00,49,weatherlink.com 1.10,2013-10-01 06:56:00,
2013-10-01 08:11:00,49.5,46.0,29.79,NE,50,3.0,-999.0,88,-99.99,,,0.00,65,weatherlink.com 1.10,2013-10-01 07:11:00,
2013-10-01 08:27:00,50.1,46.0,29.79,NNE,13,6.0,-999.0,87,-99.99,,,0.00,65,weatherlink.com 1.10,2013-10-01 07:27:00,
2013-10-01 08:42:00,50.4,47.0,29.79,NNE,17,11.0,-999.0,87,-99.99,,,0.00,79,weatherlink.com 1.10,2013-10-01 07:42:00,
2013-10-01 08:57:00,51.0,47.0,29.79,NE,49,4.0,-999.0,87,-99.99,,,0.00,121,weatherlink.com 1.10,2013-10-01 07:57:00,
2013-10-01 09:12:00,51.8,48.0,29.79,NNE,15,5.0,-999.0,86,-99.99,,,0.00,171,weatherlink.com 1.10,2013-10-01 08:12:00,
2013-10-01 09:27:00,53.5,49.0,29.79,NNE,23,11.0,-999.0,83,-99.99,,,0.00,220,weatherlink.com 1.10,2013-10-01 08:27:00,
2013-10-01 09:42:00,54.6,49.0,29.79,NE,52,4.0,-999.0,81,-99.99,,,0.00,250,weatherlink.com 1.10,2013-10-01 08:42:00,
2013-10-01 09:57:00,55.5,49.0,29.79,NNE,29,6.0,-999.0,79,-99.99,,,0.00,274,weatherlink.com 1.10,2013-10-01 08:57:00,
2013-10-01 10:12:00,56.4,49.0,29.79,North,5,4.0,-999.0,76,-99.99,,,0.00,237,weatherlink.com 1.10,2013-10-01 09:12:00,
2013-10-01 10:27:00,56.3,49.0,29.79,NE,46,8.0,-999.0,76,-99.99,,,0.00,227,weatherlink.com 1.10,2013-10-01 09:27:00,
2013-10-01 10:42:00,56.9,49.0,29.79,ENE,62,6.0,-999.0,75,-99.99,,,0.00,329,weatherlink.com 1.10,2013-10-01 09:42:00,
2013-10-01 10:57:00,57.9,50.0,29.79,East,82,5.0,-999.0,74,-99.99,,,0.00,279,weatherlink.com 1.10,2013-10-01 09:57:00,
2013-10-01 11:12:00,57.5,49.0,29.79,NE,56,4.0,-999.0,72,-99.99,,,0.00,190,weatherlink.com 1.10,2013-10-01 10:12:00,
2013-10-01 11:27:00,57.2,48.0,29.79,SE,146,1.0,-999.0,72,-99.99,,,0.00,244,weatherlink.com 1.10,2013-10-01 10:27:00,
2013-10-01 11:42:00,58.2,49.0,29.79,ESE,111,4.0,-999.0,72,-99.99,,,0.00,227,weatherlink.com 1.10,2013-10-01 10:42:00,
2013-10-01 11:57:00,58.1,49.0,29.78,ENE,59,10.0,-999.0,71,-99.99,,,0.00,221,weatherlink.com 1.10,2013-10-01 10:57:00,
2013-10-01 12:12:00,59.1,50.0,29.78,East,79,5.0,-999.0,71,-99.99,,,0.00,499,weatherlink.com 1.10,2013-10-01 11:12:00,
2013-10-01 12:27:00,60.7,50.0,29.78,ESE,113,8.0,-999.0,68,-99.99,,,0.00,554,weatherlink.com 1.10,2013-10-01 11:27:00,
2013-10-01 12:57:00,58.6,49.0,29.77,ESE,107,8.0,-999.0,71,-99.99,,,0.00,156,weatherlink.com 1.10,2013-10-01 11:57:00,
2013-10-01 13:12:00,58.4,49.0,29.77,SE,132,6.0,-999.0,72,-99.99,,,0.00,237,weatherlink.com 1.10,2013-10-01 12:12:00,
2013-10-01 13:27:00,59.1,50.0,29.77,ESE,105,8.0,-999.0,72,-99.99,,,0.00,244,weatherlink.com 1.10,2013-10-01 12:27:00,
2013-10-01 13:42:00,58.9,49.0,29.76,SE,132,7.0,-999.0,70,-99.99,,,0.00,207,weatherlink.com 1.10,2013-10-01 12:42:00,
2013-10-01 13:57:00,58.5,49.0,29.75,ENE,76,8.0,-999.0,70,-99.99,,,0.00,118,weatherlink.com 1.10,2013-10-01 12:57:00,
2013-10-01 14:12:00,58.1,49.0,29.76,ENE,61,4.0,-999.0,73,-99.99,,,0.00,93,weatherlink.com 1.10,2013-10-01 13:12:00,
2013-10-01 14:27:00,57.5,50.0,29.76,East,86,10.0,-999.0,77,-99.99,,,0.01,86,weatherlink.com 1.10,2013-10-01 13:27:00,
2013-10-01 14:42:00,56.2,50.0,29.76,ESE,107,0.0,-999.0,81,-99.99,,,0.02,60,weatherlink.com 1.10,2013-10-01 13:42:00,
2013-10-01 14:57:00,55.6,51.0,29.76,ENE,71,3.0,-999.0,85,-99.99,,,0.03,46,weatherlink.com 1.10,2013-10-01 13:57:00,
2013-10-01 15:12:00,55.2,51.0,29.77,NE,46,0.0,-999.0,87,-99.99,,,0.04,62,weatherlink.com 1.10,2013-10-01 14:12:00,
2013-10-01 15:27:00,54.9,52.0,29.76,NNE,28,4.0,-999.0,89,-99.99,,,0.04,23,weatherlink.com 1.10,2013-10-01 14:27:00,
2013-10-01 15:42:00,54.7,52.0,29.76,NNE,22,4.0,-999.0,89,-99.99,,,0.04,25,weatherlink.com 1.10,2013-10-01 14:42:00,
2013-10-01 15:57:00,54.7,52.0,29.75,NNE,25,0.0,-999.0,89,-99.99,,,0.04,25,weatherlink.com 1.10,2013-10-01 14:57:00,
2013-10-01 16:12:00,54.7,51.0,29.75,NNE,17,1.0,-999.0,88,-99.99,,,0.04,19,weatherlink.com 1.10,2013-10-01 15:12:00,
2013-10-01 16:27:00,54.9,52.0,29.74,NNE,30,4.0,-999.0,88,-99.99,,,0.04,18,weatherlink.com 1.10,2013-10-01 15:27:00,
2013-10-01 16:42:00,55.0,52.0,29.73,NNE,31,3.0,-999.0,88,-99.99,,,0.04,58,weatherlink.com 1.10,2013-10-01 15:42:00,
2013-10-01 17:13:00,55.9,52.0,29.73,NE,38,4.0,-999.0,86,-99.99,,,0.04,37,weatherlink.com 1.10,2013-10-01 16:13:00,
2013-10-01 17:28:00,56.0,52.0,29.73,North,9,11.0,-999.0,86,-99.99,,,0.04,40,weatherlink.com 1.10,2013-10-01 16:28:00,
2013-10-01 17:43:00,56.0,52.0,29.73,NNW,341,3.0,-999.0,85,-99.99,,,0.04,19,weatherlink.com 1.10,2013-10-01 16:43:00,
2013-10-01 17:58:00,55.8,52.0,29.74,North,350,2.0,-999.0,86,-99.99,,,0.04,7,weatherlink.com 1.10,2013-10-01 16:58:00,
2013-10-01 18:13:00,55.6,52.0,29.73,North,5,8.0,-999.0,86,-99.99,,,0.04,5,weatherlink.com 1.10,2013-10-01 17:13:00,
2013-10-01 18:28:00,55.8,51.0,29.74,NE,38,4.0,-999.0,85,-99.99,,,0.04,5,weatherlink.com 1.10,2013-10-01 17:28:00,
2013-10-01 18:43:00,55.8,51.0,29.73,North,5,7.0,-999.0,85,-99.99,,,0.04,0,weatherlink.com 1.10,2013-10-01 17:43:00,
2013-10-01 18:58:00,55.6,51.0,29.74,NNE,32,6.0,-999.0,85,-99.99,,,0.04,0,weatherlink.com 1.10,2013-10-01 17:58:00,
2013-10-01 19:13:00,55.8,51.0,29.75,NE,40,4.0,-999.0,85,-99.99,,,0.04,0,weatherlink.com 1.10,2013-10-01 18:13:00,
2013-10-01 19:28:00,55.9,52.0,29.75,NNE,21,4.0,-999.0,85,-99.99,,,0.04,0,weatherlink.com 1.10,2013-10-01 18:28:00,
2013-10-01 19:43:00,56.0,52.0,29.75,NE,37,6.0,-999.0,85,-99.99,,,0.04,0,weatherlink.com 1.10,2013-10-01 18:43:00,
2013-10-01 19:58:00,56.1,51.0,29.75,NNE,13,2.0,-999.0,84,-99.99,,,0.04,0,weatherlink.com 1.10,2013-10-01 18:58:00,
2013-10-01 20:13:00,55.9,52.0,29.75,NNE,15,3.0,-999.0,85,-99.99,,,0.04,0,weatherlink.com 1.10,2013-10-01 19:13:00,
2013-10-01 20:28:00,55.6,51.0,29.75,NNW,346,4.0,-999.0,85,-99.99,,,0.04,0,weatherlink.com 1.10,2013-10-01 19:28:00,
2013-10-01 20:43:00,55.4,51.0,29.75,NNE,19,6.0,-999.0,86,-99.99,,,0.04,0,weatherlink.com 1.10,2013-10-01 19:43:00,
2013-10-01 20:58:00,55.2,51.0,29.75,North,5,2.0,-999.0,86,-99.99,,,0.04,0,weatherlink.com 1.10,2013-10-01 19:58:00,
2013-10-01 21:13:00,55.0,51.0,29.75,NE,38,5.0,-999.0,87,-99.99,,,0.04,0,weatherlink.com 1.10,2013-10-01 20:13:00,
2013-10-01 21:28:00,54.8,51.0,29.75,NNE,30,1.0,-999.0,87,-99.99,,,0.04,0,weatherlink.com 1.10,2013-10-01 20:28:00,
2013-10-01 21:43:00,54.6,52.0,29.76,NNE,32,6.0,-999.0,89,-99.99,,,0.05,0,weatherlink.com 1.10,2013-10-01 20:43:00,
2013-10-01 22:13:00,53.8,51.0,29.75,North,355,7.0,-999.0,91,-99.99,,,0.05,0,weatherlink.com 1.10,2013-10-01 21:13:00,
2013-10-01 22:28:00,53.4,51.0,29.75,NE,42,5.0,-999.0,92,-99.99,,,0.05,0,weatherlink.com 1.10,2013-10-01 21:28:00,
2013-10-01 22:43:00,53.1,51.0,29.75,North,5,4.0,-999.0,93,-99.99,,,0.06,0,weatherlink.com 1.10,2013-10-01 21:43:00,
2013-10-01 22:58:00,52.8,51.0,29.75,NNW,348,3.0,-999.0,93,-99.99,,,0.07,0,weatherlink.com 1.10,2013-10-01 21:58:00,
2013-10-01 23:13:00,52.7,51.0,29.75,North,355,1.0,-999.0,94,-99.99,,,0.08,0,weatherlink.com 1.10,2013-10-01 22:13:00,
2013-10-01 23:28:00,52.5,51.0,29.75,North,5,3.0,-999.0,94,-99.99,,,0.10,0,weatherlink.com 1.10,2013-10-01 22:28:00,
2013-10-01 23:43:00,52.4,51.0,29.75,NNE,17,0.0,-999.0,95,-99.99,,,0.11,0,weatherlink.com 1.10,2013-10-01 22:43:00,
2013-10-01 23:58:00,52.3,51.0,29.75,NNW,329,3.0,-999.0,95,-99.99,,,0.00,0,weatherlink.com 1.10,2013-10-01 22:58:00,